Time;durP1;ratioP1;P1;durP2;ratioP2;P2;SDS_P1;SDS_P2;PMS_P1;PMS_P2;Temp;Humidity;BMP_temperature;BMP_pressure;BME280_temperature;BME280_humidity;BME280_pressure;Samples;Min_cycle;Max_cycle;Signal;HPM_P1;HPM_P2
2023/06/30 00:00:59;;;;;;;4.88;2.58;;;19.00;99.90;;;;;;5066738;28;20071;-59
2023/06/30 00:03:26;;;;;;;6.43;2.30;;;18.90;99.90;;;;;;5065898;28;20048;-60
2023/06/30 00:05:53;;;;;;;5.53;2.55;;;18.90;99.90;;;;;;5065992;28;20559;-59
2023/06/30 00:08:20;;;;;;;5.20;3.38;;;18.90;99.90;;;;;;5065725;28;20094;-59
2023/06/30 00:10:46;;;;;;;6.93;2.83;;;18.80;99.90;;;;;;5066596;28;20044;-58
2023/06/30 00:13:13;;;;;;;8.15;2.47;;;18.80;99.90;;;;;;5067555;28;20041;-61
2023/06/30 00:15:40;;;;;;;4.72;2.42;;;18.80;99.90;;;;;;5066577;28;20055;-59
2023/06/30 00:18:07;;;;;;;5.85;2.88;;;18.80;99.90;;;;;;5067486;28;20123;-59
2023/06/30 00:20:34;;;;;;;5.88;2.38;;;18.80;99.90;;;;;;5067618;28;20472;-59
2023/06/30 00:23:01;;;;;;;4.75;2.38;;;18.70;99.90;;;;;;5067187;28;20044;-59
2023/06/30 00:25:28;;;;;;;8.57;2.35;;;18.70;99.90;;;;;;5067292;28;20419;-60
2023/06/30 00:27:54;;;;;;;5.18;2.42;;;18.60;99.90;;;;;;5066963;28;20458;-59
2023/06/30 00:30:21;;;;;;;7.53;3.10;;;18.60;99.90;;;;;;5067463;28;20846;-59
2023/06/30 00:32:48;;;;;;;5.30;2.70;;;18.50;99.90;;;;;;5049573;28;20059;-59
2023/06/30 00:35:15;;;;;;;6.40;2.50;;;18.50;99.90;;;;;;5063338;28;20138;-59
2023/06/30 00:37:42;;;;;;;5.63;2.50;;;18.50;99.90;;;;;;5066891;28;20049;-59
2023/06/30 00:40:09;;;;;;;4.63;2.58;;;18.50;99.90;;;;;;5067933;28;20106;-59
2023/06/30 00:42:36;;;;;;;6.45;2.95;;;18.50;99.90;;;;;;5067827;28;20106;-59
2023/06/30 00:45:03;;;;;;;7.75;2.35;;;18.40;99.90;;;;;;5067257;28;20044;-59
2023/06/30 00:47:30;;;;;;;4.07;2.67;;;18.40;99.90;;;;;;5067493;28;20518;-60
2023/06/30 00:49:56;;;;;;;4.90;2.20;;;18.40;99.90;;;;;;5032571;28;20079;-60
2023/06/30 00:52:24;;;;;;;5.63;2.55;;;18.30;99.90;;;;;;5066767;28;20557;-60
2023/06/30 00:54:51;;;;;;;4.57;2.22;;;18.30;99.90;;;;;;5049279;28;20495;-60
2023/06/30 00:57:17;;;;;;;5.63;2.00;;;18.20;99.90;;;;;;5067513;28;20048;-59
2023/06/30 00:59:44;;;;;;;3.88;2.60;;;18.10;99.90;;;;;;5067773;28;20490;-59
2023/06/30 01:02:18;;;;;;;4.90;2.40;;;18.10;99.90;;;;;;5067265;28;20411;-59
2023/06/30 01:05:04;;;;;;;6.35;2.60;;;18.00;99.90;;;;;;5031636;28;20056;-59
2023/06/30 01:07:55;;;;;;;6.43;3.00;;;17.90;99.90;;;;;;5047835;28;20507;-60
2023/06/30 01:10:23;;;;;;;4.72;3.10;;;17.80;99.90;;;;;;5049681;28;20125;-59
2023/06/30 01:12:50;;;;;;;6.70;2.97;;;17.80;99.90;;;;;;5065430;28;20060;-59
2023/06/30 01:15:17;;;;;;;5.97;2.92;;;17.70;99.90;;;;;;4681184;28;10000100;-60
2023/06/30 01:17:46;;;;;;;11.48;3.13;;;17.70;99.90;;;;;;5049546;28;20098;-59
2023/06/30 01:20:14;;;;;;;3.50;2.67;;;17.70;99.90;;;;;;5049874;28;20508;-59
2023/06/30 01:23:02;;;;;;;3.83;2.70;;;17.60;99.90;;;;;;5031424;28;20048;-60
2023/06/30 01:25:29;;;;;;;5.13;2.95;;;17.60;99.90;;;;;;5049187;28;20061;-59
2023/06/30 01:27:56;;;;;;;6.80;2.80;;;17.50;99.90;;;;;;5032836;28;20049;-59
2023/06/30 01:30:23;;;;;;;4.53;2.67;;;17.50;99.90;;;;;;5067340;28;20044;-59
2023/06/30 01:32:54;;;;;;;9.45;3.08;;;17.50;99.90;;;;;;5049360;28;20047;-60
2023/06/30 01:35:22;;;;;;;6.22;3.05;;;17.40;99.90;;;;;;5049347;28;20044;-58
2023/06/30 01:37:49;;;;;;;6.15;3.15;;;17.40;99.90;;;;;;5066714;28;20048;-59
2023/06/30 01:40:16;;;;;;;4.63;2.38;;;17.30;99.90;;;;;;5067694;28;20422;-58
2023/06/30 01:42:43;;;;;;;8.00;2.78;;;17.30;99.90;;;;;;5029420;28;20068;-58
2023/06/30 01:45:10;;;;;;;3.95;2.45;;;17.20;99.90;;;;;;5035734;28;20052;-60
2023/06/30 01:47:37;;;;;;;5.43;3.15;;;17.10;99.90;;;;;;5032392;28;20677;-59
2023/06/30 01:50:05;;;;;;;5.38;2.58;;;17.10;99.90;;;;;;5029544;28;20044;-60
2023/06/30 01:52:32;;;;;;;8.85;4.25;;;17.00;99.90;;;;;;5038519;28;20106;-59
2023/06/30 01:54:58;;;;;;;6.20;2.55;;;17.00;99.90;;;;;;5066874;28;20040;-60
2023/06/30 01:57:25;;;;;;;3.35;2.55;;;16.90;99.90;;;;;;5066565;28;20057;-60
2023/06/30 01:59:52;;;;;;;4.20;2.70;;;16.90;99.90;;;;;;5067048;28;20103;-59
2023/06/30 02:02:19;;;;;;;5.20;2.25;;;16.70;99.90;;;;;;5067120;28;20055;-60
2023/06/30 02:04:46;;;;;;;6.10;3.05;;;16.60;99.90;;;;;;5070070;28;20102;-59
2023/06/30 02:07:12;;;;;;;10.20;2.67;;;16.50;99.90;;;;;;5069551;28;20086;-59
2023/06/30 02:09:39;;;;;;;4.97;2.97;;;16.50;99.90;;;;;;5060372;28;20281;-59
2023/06/30 02:12:14;;;;;;;5.93;2.40;;;16.50;99.90;;;;;;5070278;28;20044;-59
2023/06/30 02:14:41;;;;;;;9.75;2.55;;;16.50;99.90;;;;;;5070159;28;20055;-59
2023/06/30 02:17:10;;;;;;;5.32;2.28;;;16.60;99.90;;;;;;5070025;28;20326;-59
2023/06/30 02:19:37;;;;;;;4.47;2.25;;;16.60;99.90;;;;;;5070093;28;20067;-59
2023/06/30 02:22:04;;;;;;;6.40;2.63;;;16.50;99.90;;;;;;5069676;28;20487;-58
2023/06/30 02:24:31;;;;;;;6.30;2.30;;;16.50;99.90;;;;;;5069415;28;20084;-59
2023/06/30 02:26:58;;;;;;;5.57;2.35;;;16.40;99.90;;;;;;5069912;28;20505;-59
2023/06/30 02:29:24;;;;;;;6.13;2.22;;;16.40;99.90;;;;;;5070067;28;20141;-59
2023/06/30 02:31:51;;;;;;;4.97;2.13;;;16.40;99.90;;;;;;5069837;28;20041;-61
2023/06/30 02:34:18;;;;;;;4.60;2.63;;;16.50;99.90;;;;;;5069567;28;20047;-58
2023/06/30 02:36:48;;;;;;;4.50;2.10;;;16.40;99.90;;;;;;5069099;28;20057;-58
2023/06/30 02:39:16;;;;;;;4.20;2.22;;;16.50;99.90;;;;;;5066215;28;20074;-59
2023/06/30 02:41:43;;;;;;;6.45;2.55;;;16.50;99.90;;;;;;5068925;28;20055;-60
2023/06/30 02:44:10;;;;;;;3.85;2.17;;;16.40;99.90;;;;;;5068706;28;20479;-60
2023/06/30 02:46:37;;;;;;;6.45;1.90;;;16.40;99.90;;;;;;5067888;28;20037;-60
2023/06/30 02:49:04;;;;;;;8.10;2.17;;;16.30;99.90;;;;;;5069418;28;20052;-60
2023/06/30 02:51:31;;;;;;;4.68;2.08;;;16.40;99.90;;;;;;5052528;28;20090;-60
2023/06/30 02:53:58;;;;;;;8.57;2.30;;;16.30;99.90;;;;;;5069028;28;20052;-61
2023/06/30 02:56:24;;;;;;;4.80;2.30;;;16.30;99.90;;;;;;5069254;28;20127;-60
2023/06/30 02:58:51;;;;;;;2.97;1.83;;;16.30;99.90;;;;;;5069241;28;20306;-60
2023/06/30 03:01:21;;;;;;;5.38;2.00;;;16.20;99.90;;;;;;5069772;28;20051;-60
2023/06/30 03:03:48;;;;;;;5.05;2.13;;;16.20;99.90;;;;;;5069661;28;20135;-60
2023/06/30 03:06:15;;;;;;;8.43;2.45;;;16.10;99.90;;;;;;5047084;28;20431;-60
2023/06/30 03:08:42;;;;;;;4.82;2.17;;;16.10;99.90;;;;;;5068530;28;20052;-60
2023/06/30 03:11:10;;;;;;;6.15;2.40;;;16.00;99.90;;;;;;5069271;28;20056;-60
2023/06/30 03:13:38;;;;;;;5.07;2.47;;;15.90;99.90;;;;;;5068813;28;20051;-60
2023/06/30 03:16:05;;;;;;;4.50;1.80;;;15.90;99.90;;;;;;5067889;28;20037;-60
2023/06/30 03:18:32;;;;;;;7.43;1.88;;;15.80;99.90;;;;;;5069433;28;20483;-60
2023/06/30 03:20:59;;;;;;;6.20;1.95;;;15.70;99.90;;;;;;5069470;28;20090;-60
2023/06/30 03:23:26;;;;;;;5.07;1.85;;;15.70;99.90;;;;;;5068967;28;20057;-61
2023/06/30 03:25:53;;;;;;;9.15;2.25;;;15.70;99.90;;;;;;5068550;28;20534;-60
2023/06/30 03:28:19;;;;;;;4.90;1.55;;;15.60;99.90;;;;;;5068862;28;20044;-60
2023/06/30 03:30:46;;;;;;;6.60;1.95;;;15.50;99.90;;;;;;5068682;28;20073;-60
2023/06/30 03:33:13;;;;;;;2.83;1.58;;;15.50;99.90;;;;;;5069121;28;20494;-60
2023/06/30 03:35:40;;;;;;;5.43;2.08;;;15.40;99.90;;;;;;5067819;28;20036;-60
2023/06/30 03:38:07;;;;;;;4.43;1.60;;;15.40;99.90;;;;;;5068855;28;20051;-60
2023/06/30 03:40:33;;;;;;;6.10;1.85;;;15.40;99.90;;;;;;5068410;28;20514;-60
2023/06/30 03:43:00;;;;;;;5.03;1.60;;;15.40;99.90;;;;;;5069015;28;20071;-60
2023/06/30 03:45:27;;;;;;;2.90;1.60;;;15.40;99.90;;;;;;5068101;28;20043;-60
2023/06/30 03:47:54;;;;;;;8.13;2.75;;;15.30;99.90;;;;;;5064865;28;20044;-59
2023/06/30 03:50:21;;;;;;;5.07;2.50;;;15.20;99.90;;;;;;5068806;28;20052;-61
2023/06/30 03:52:48;;;;;;;3.38;1.55;;;15.20;99.90;;;;;;5068417;28;20041;-60
2023/06/30 03:55:14;;;;;;;2.47;1.63;;;15.10;99.90;;;;;;5068239;28;20040;-60
2023/06/30 03:57:41;;;;;;;2.67;1.15;;;15.10;99.90;;;;;;5067849;28;20053;-60
2023/06/30 04:00:12;;;;;;;3.20;1.20;;;15.10;99.90;;;;;;5068436;28;20470;-60
2023/06/30 04:02:39;;;;;;;3.78;1.10;;;15.00;99.90;;;;;;5063791;28;20044;-60
2023/06/30 04:05:06;;;;;;;5.28;1.58;;;15.00;99.90;;;;;;5065222;28;20055;-59
2023/06/30 04:07:34;;;;;;;3.10;1.27;;;14.90;99.90;;;;;;5047357;28;20056;-61
2023/06/30 04:10:01;;;;;;;5.72;1.27;;;14.80;99.90;;;;;;5068271;28;20511;-60
2023/06/30 04:12:27;;;;;;;6.15;1.20;;;14.70;99.90;;;;;;5046802;28;20044;-60
2023/06/30 04:14:54;;;;;;;4.60;1.50;;;14.70;99.90;;;;;;5068313;28;20082;-60
2023/06/30 04:17:21;;;;;;;2.58;1.10;;;14.70;99.90;;;;;;5067410;28;20052;-60
2023/06/30 04:19:48;;;;;;;3.45;1.67;;;14.70;99.90;;;;;;5068324;28;20594;-60
2023/06/30 04:22:15;;;;;;;2.60;1.10;;;14.80;99.90;;;;;;5067421;28;20044;-60
2023/06/30 04:24:42;;;;;;;3.60;1.42;;;14.80;99.90;;;;;;5068061;28;20052;-59
2023/06/30 04:27:08;;;;;;;3.92;1.05;;;14.70;99.90;;;;;;5067345;28;20064;-59
2023/06/30 04:29:35;;;;;;;2.60;1.20;;;14.70;99.90;;;;;;5068059;28;20052;-59
2023/06/30 04:32:03;;;;;;;7.20;1.75;;;14.70;99.90;;;;;;5067938;28;20055;-59
2023/06/30 04:34:30;;;;;;;2.00;1.40;;;14.70;99.90;;;;;;5067663;28;20132;-60
2023/06/30 04:36:57;;;;;;;7.97;1.60;;;14.70;99.90;;;;;;5067014;28;20040;-59
2023/06/30 04:39:23;;;;;;;3.83;1.50;;;14.70;99.90;;;;;;5067612;28;20048;-59
2023/06/30 04:41:50;;;;;;;4.30;1.52;;;14.70;99.90;;;;;;5067703;28;20448;-59
2023/06/30 04:44:17;;;;;;;2.15;1.13;;;14.60;99.90;;;;;;5067692;28;20125;-59
2023/06/30 04:46:44;;;;;;;5.47;1.90;;;14.60;99.90;;;;;;5067472;28;20041;-60
2023/06/30 04:49:11;;;;;;;8.27;1.75;;;14.70;99.90;;;;;;5067392;28;20138;-59
2023/06/30 04:51:37;;;;;;;4.78;1.30;;;14.70;99.90;;;;;;5049894;28;20041;-61
2023/06/30 04:54:04;;;;;;;3.42;1.52;;;14.70;99.90;;;;;;5067454;28;20109;-61
2023/06/30 04:56:31;;;;;;;6.60;1.27;;;14.70;99.90;;;;;;5067430;28;20450;-60
2023/06/30 04:58:58;;;;;;;7.40;1.40;;;14.70;99.90;;;;;;5067563;28;20086;-60
2023/06/30 05:01:25;;;;;;;7.18;2.05;;;14.70;99.90;;;;;;5067380;28;20188;-60
2023/06/30 05:03:52;;;;;;;4.50;1.63;;;14.60;99.90;;;;;;5067524;28;20048;-60
2023/06/30 05:06:19;;;;;;;3.08;1.25;;;14.70;99.90;;;;;;5067496;28;20059;-60
2023/06/30 05:08:45;;;;;;;4.75;1.38;;;14.70;99.90;;;;;;5066602;28;20056;-60
2023/06/30 05:11:12;;;;;;;3.55;1.60;;;14.70;99.90;;;;;;5067885;28;20270;-60
2023/06/30 05:13:39;;;;;;;3.72;1.30;;;14.60;99.90;;;;;;5067102;28;20045;-60
2023/06/30 05:16:06;;;;;;;5.20;1.73;;;14.70;99.90;;;;;;5067133;28;20044;-59
2023/06/30 05:18:33;;;;;;;4.70;1.33;;;14.70;99.90;;;;;;5066777;28;20048;-60
2023/06/30 05:21:00;;;;;;;6.68;1.65;;;14.70;99.90;;;;;;5067282;28;20107;-60
2023/06/30 05:23:27;;;;;;;3.95;1.60;;;14.80;99.90;;;;;;5067150;28;20055;-60
2023/06/30 05:25:53;;;;;;;3.42;1.30;;;14.80;99.90;;;;;;5066924;28;20328;-60
2023/06/30 05:28:20;;;;;;;1.45;1.02;;;14.80;99.90;;;;;;5066801;28;20048;-59
2023/06/30 05:30:47;;;;;;;6.50;1.67;;;14.80;99.90;;;;;;5067078;28;20036;-59
2023/06/30 05:33:14;;;;;;;10.80;1.80;;;14.80;99.90;;;;;;5066645;28;20044;-60
2023/06/30 05:35:41;;;;;;;4.63;1.58;;;14.80;99.90;;;;;;5059343;28;20082;-62
2023/06/30 05:38:08;;;;;;;6.30;1.42;;;14.80;99.90;;;;;;5059774;28;20040;-61
2023/06/30 05:40:35;;;;;;;2.63;1.20;;;14.90;99.90;;;;;;5052061;28;20044;-60
2023/06/30 05:43:01;;;;;;;3.22;1.40;;;14.90;99.90;;;;;;5071406;28;20094;-59
2023/06/30 05:45:28;;;;;;;3.35;1.10;;;14.90;99.90;;;;;;5070996;28;20151;-59
2023/06/30 05:47:56;;;;;;;7.00;3.28;;;14.90;99.90;;;;;;5070643;28;20438;-61
2023/06/30 05:50:23;;;;;;;4.32;1.45;;;14.90;99.90;;;;;;5053088;28;20040;-60
2023/06/30 05:52:50;;;;;;;3.30;1.70;;;15.00;99.90;;;;;;5070987;28;20045;-60
2023/06/30 05:55:17;;;;;;;15.32;2.50;;;15.10;99.90;;;;;;5070595;28;20037;-59
2023/06/30 05:57:44;;;;;;;13.38;1.75;;;15.10;99.90;;;;;;5070955;28;20640;-60
2023/06/30 06:00:11;;;;;;;6.82;1.52;;;15.10;99.90;;;;;;5069575;28;20043;-60
2023/06/30 06:02:38;;;;;;;11.38;3.00;;;15.10;99.90;;;;;;5070874;28;20466;-60
2023/06/30 06:05:05;;;;;;;7.50;2.13;;;15.10;99.90;;;;;;5070276;28;20530;-60
2023/06/30 06:07:32;;;;;;;8.50;1.45;;;15.10;99.90;;;;;;5066809;28;20128;-59
2023/06/30 06:09:59;;;;;;;9.10;1.80;;;15.20;99.90;;;;;;5070245;28;20123;-59
2023/06/30 06:12:26;;;;;;;6.68;1.58;;;15.30;99.90;;;;;;5049584;28;20041;-59
2023/06/30 06:14:53;;;;;;;4.88;1.25;;;15.40;99.90;;;;;;5069902;28;20044;-59
2023/06/30 06:17:19;;;;;;;1.73;0.93;;;15.40;99.90;;;;;;5067562;28;20040;-59
2023/06/30 06:19:47;;;;;;;6.10;1.27;;;15.50;99.90;;;;;;5052467;28;20044;-60
2023/06/30 06:22:13;;;;;;;8.48;1.65;;;15.40;99.90;;;;;;5065418;28;20047;-61
2023/06/30 06:24:40;;;;;;;7.32;1.38;;;15.50;99.90;;;;;;5069908;28;20534;-60
2023/06/30 06:27:07;;;;;;;2.85;1.45;;;15.60;99.90;;;;;;5069474;28;20434;-59
2023/06/30 06:29:34;;;;;;;7.82;2.20;;;15.80;99.90;;;;;;5069993;28;20049;-60
2023/06/30 06:32:00;;;;;;;5.97;1.67;;;15.90;99.90;;;;;;5068829;28;20048;-59
2023/06/30 06:34:27;;;;;;;2.83;1.50;;;15.90;99.90;;;;;;5069992;28;20075;-58
2023/06/30 06:36:54;;;;;;;4.18;0.75;;;16.00;99.90;;;;;;5069253;28;20076;-58
2023/06/30 06:39:21;;;;;;;4.97;1.30;;;16.00;99.90;;;;;;5069113;28;20454;-57
2023/06/30 06:41:48;;;;;;;4.72;1.88;;;16.10;99.90;;;;;;5069683;28;20058;-57
2023/06/30 06:44:16;;;;;;;6.20;1.30;;;16.10;99.90;;;;;;5067743;28;20052;-59
2023/06/30 06:46:43;;;;;;;6.13;1.25;;;16.10;99.90;;;;;;5052216;28;20545;-60
2023/06/30 06:49:10;;;;;;;10.38;1.05;;;16.00;99.90;;;;;;5066961;28;20213;-57
2023/06/30 06:51:37;;;;;;;6.20;1.45;;;16.00;99.90;;;;;;5050084;28;20080;-58
2023/06/30 06:54:04;;;;;;;5.38;1.17;;;16.10;99.90;;;;;;5047256;28;20397;-59
2023/06/30 06:56:31;;;;;;;5.22;1.40;;;16.20;99.90;;;;;;5069894;28;20051;-60
2023/06/30 06:58:58;;;;;;;4.40;1.63;;;16.20;99.90;;;;;;5069794;28;20083;-61
2023/06/30 07:01:25;;;;;;;6.82;1.52;;;16.30;99.90;;;;;;5069754;28;20561;-60
2023/06/30 07:03:51;;;;;;;5.15;1.90;;;16.40;99.90;;;;;;5069361;28;20415;-60
2023/06/30 07:06:18;;;;;;;7.07;2.03;;;16.60;99.90;;;;;;5069635;28;20569;-60
2023/06/30 07:08:45;;;;;;;3.70;1.38;;;16.70;99.90;;;;;;5069466;28;20397;-59
2023/06/30 07:11:12;;;;;;;9.80;1.35;;;16.80;99.90;;;;;;5069438;28;20461;-59
2023/06/30 07:13:40;;;;;;;4.65;1.58;;;16.90;99.90;;;;;;5069187;28;20044;-59
2023/06/30 07:16:06;;;;;;;7.78;1.77;;;17.00;99.90;;;;;;5066722;28;20052;-59
2023/06/30 07:18:34;;;;;;;4.15;1.90;;;17.10;99.90;;;;;;5065665;28;20052;-60
2023/06/30 07:21:02;;;;;;;4.70;1.50;;;17.10;99.90;;;;;;5068235;28;20152;-59
2023/06/30 07:23:28;;;;;;;5.75;1.65;;;17.10;99.90;;;;;;5068737;28;20040;-59
2023/06/30 07:25:55;;;;;;;3.50;1.00;;;17.20;99.90;;;;;;5069038;28;20056;-59
2023/06/30 07:28:22;;;;;;;7.13;1.50;;;17.20;99.90;;;;;;5069137;28;20048;-60
2023/06/30 07:30:49;;;;;;;3.67;1.13;;;17.30;99.90;;;;;;5069188;28;20056;-59
2023/06/30 07:33:17;;;;;;;9.65;2.35;;;17.30;99.90;;;;;;5067700;28;20067;-59
2023/06/30 07:35:44;;;;;;;3.97;1.20;;;17.40;99.90;;;;;;5064232;28;20388;-59
2023/06/30 07:38:11;;;;;;;7.80;2.70;;;17.50;99.90;;;;;;4716137;28;10000446;-58
2023/06/30 07:40:38;;;;;;;5.75;1.63;;;17.50;99.90;;;;;;5062340;28;20368;-59
2023/06/30 07:43:08;;;;;;;3.05;1.05;;;17.60;99.90;;;;;;5055354;28;20134;-59
2023/06/30 07:45:35;;;;;;;3.58;1.17;;;17.60;99.90;;;;;;5061596;28;20068;-59
2023/06/30 07:48:02;;;;;;;2.97;1.10;;;17.60;99.90;;;;;;5056451;28;20048;-60
2023/06/30 07:50:29;;;;;;;7.50;1.10;;;17.60;99.90;;;;;;5059541;28;20373;-59
2023/06/30 07:52:56;;;;;;;4.28;1.10;;;17.60;99.90;;;;;;5057710;28;20056;-59
2023/06/30 07:55:23;;;;;;;9.38;1.40;;;17.60;99.90;;;;;;5054616;28;20314;-60
2023/06/30 07:57:51;;;;;;;7.50;1.48;;;17.70;99.90;;;;;;5063468;28;20084;-59
2023/06/30 08:00:18;;;;;;;2.50;1.13;;;17.70;99.90;;;;;;5063203;28;20040;-59
2023/06/30 08:02:45;;;;;;;4.22;1.33;;;17.70;99.90;;;;;;5057150;28;20073;-59
2023/06/30 08:05:13;;;;;;;4.53;1.27;;;17.60;99.90;;;;;;5072708;28;20052;-60
2023/06/30 08:07:40;;;;;;;7.72;1.10;;;17.70;99.90;;;;;;5064373;28;20075;-60
2023/06/30 08:10:16;;;;;;;4.55;1.20;;;17.80;99.90;;;;;;5064021;28;20055;-60
2023/06/30 08:12:43;;;;;;;17.73;2.15;;;18.00;99.90;;;;;;5074452;28;20048;-60
2023/06/30 08:15:10;;;;;;;3.47;1.30;;;18.00;99.90;;;;;;5076026;28;20053;-60
2023/06/30 08:17:37;;;;;;;4.35;0.90;;;18.10;99.90;;;;;;5064158;28;20098;-59
2023/06/30 08:20:22;;;;;;;11.60;1.42;;;18.30;99.90;;;;;;5063112;28;20048;-58
2023/06/30 08:22:49;;;;;;;2.10;0.90;;;18.40;99.90;;;;;;5046791;28;20499;-60
2023/06/30 08:25:23;;;;;;;8.63;1.05;;;18.40;99.90;;;;;;5064782;28;20044;-58
2023/06/30 08:27:50;;;;;;;4.15;2.10;;;18.50;99.90;;;;;;5065670;28;20064;-59
2023/06/30 08:30:17;;;;;;;8.20;1.67;;;18.70;99.90;;;;;;5065336;28;20663;-60
2023/06/30 08:32:48;;;;;;;5.85;1.05;;;18.80;99.90;;;;;;5053098;28;20127;-58
2023/06/30 08:35:15;;;;;;;1.77;1.00;;;18.80;99.90;;;;;;5065163;28;20083;-59
2023/06/30 08:37:42;;;;;;;6.13;1.55;;;18.80;99.90;;;;;;5047203;28;20064;-58
2023/06/30 08:40:10;;;;;;;6.65;2.28;;;18.90;99.90;;;;;;5065000;28;20051;-59
2023/06/30 08:42:37;;;;;;;5.45;1.30;;;19.10;99.70;;;;;;5047210;28;20472;-59
2023/06/30 08:45:04;;;;;;;6.22;1.40;;;19.00;99.80;;;;;;5065097;28;20064;-60
2023/06/30 08:47:34;;;;;;;4.70;1.35;;;18.90;99.60;;;;;;5067619;28;20052;-59
2023/06/30 08:50:01;;;;;;;4.90;1.77;;;18.90;99.90;;;;;;5067387;28;20087;-59
2023/06/30 08:52:28;;;;;;;5.10;1.38;;;19.10;99.80;;;;;;5049974;28;20052;-57
2023/06/30 08:54:55;;;;;;;4.13;1.02;;;19.10;99.90;;;;;;5068204;28;20048;-57
2023/06/30 08:57:22;;;;;;;6.03;1.65;;;19.10;99.90;;;;;;5067639;28;20090;-58
2023/06/30 08:59:49;;;;;;;3.90;1.23;;;19.10;99.90;;;;;;5033905;28;20056;-58
2023/06/30 09:02:16;;;;;;;4.40;1.58;;;19.20;99.40;;;;;;5067898;28;20041;-58
2023/06/30 09:04:43;;;;;;;3.17;1.00;;;19.20;99.90;;;;;;5050207;28;20330;-59
2023/06/30 09:07:13;;;;;;;4.30;1.15;;;19.10;99.60;;;;;;5047637;28;20067;-60
2023/06/30 09:09:44;;;;;;;3.58;0.85;;;19.10;99.50;;;;;;5030266;28;20052;-59
2023/06/30 09:12:10;;;;;;;7.47;1.55;;;19.10;98.60;;;;;;5042766;28;20443;-59
2023/06/30 09:14:40;;;;;;;4.95;1.00;;;19.10;98.70;;;;;;5027859;28;20045;-61
2023/06/30 09:17:07;;;;;;;6.82;1.60;;;19.00;98.60;;;;;;5050846;28;20045;-59
2023/06/30 09:19:35;;;;;;;4.43;1.25;;;18.90;99.50;;;;;;5048994;28;20060;-59
2023/06/30 09:22:03;;;;;;;4.57;1.70;;;18.90;99.90;;;;;;5064662;28;20048;-59
2023/06/30 09:24:50;;;;;;;8.27;1.20;;;18.90;99.90;;;;;;5034042;28;20079;-59
2023/06/30 09:27:17;;;;;;;7.63;1.50;;;19.00;99.60;;;;;;5071153;28;20519;-59
2023/06/30 09:29:52;;;;;;;5.47;1.35;;;19.00;99.10;;;;;;5071475;28;20055;-60
2023/06/30 09:32:26;;;;;;;6.95;1.58;;;19.00;99.40;;;;;;5054090;28;20072;-60
2023/06/30 09:34:53;;;;;;;;;;;19.10;99.30;;;;;;5027062;28;20095;-60
2023/06/30 09:37:20;;;;;;;9.15;1.33;;;19.20;98.40;;;;;;5071608;28;20359;-59
2023/06/30 09:39:51;;;;;;;5.28;0.85;;;19.20;98.80;;;;;;5071400;28;20045;-58
2023/06/30 09:42:20;;;;;;;3.80;1.13;;;19.10;98.30;;;;;;5071410;28;20045;-60
2023/06/30 09:44:47;;;;;;;10.27;1.63;;;19.20;99.10;;;;;;5033571;28;20051;-59
2023/06/30 09:47:14;;;;;;;3.47;1.60;;;19.30;99.10;;;;;;5051461;28;20319;-61
2023/06/30 09:49:42;;;;;;;9.45;1.58;;;19.40;99.30;;;;;;5053039;28;20398;-62
2023/06/30 09:52:09;;;;;;;2.90;1.15;;;19.50;99.70;;;;;;5053700;28;20553;-59
2023/06/30 09:54:36;;;;;;;3.97;1.20;;;19.70;99.90;;;;;;5053455;28;20135;-61
2023/06/30 09:57:10;;;;;;;3.58;1.60;;;19.90;99.80;;;;;;5054635;28;20056;-58
2023/06/30 09:59:37;;;;;;;8.00;1.60;;;19.80;99.30;;;;;;5070778;28;20052;-61
2023/06/30 10:02:04;;;;;;;5.07;1.25;;;19.90;99.30;;;;;;5053134;28;20056;-59
2023/06/30 10:04:31;;;;;;;5.72;1.73;;;19.80;98.80;;;;;;5036428;28;20048;-61
2023/06/30 10:06:59;;;;;;;8.85;1.63;;;20.00;99.90;;;;;;5052850;28;20044;-59
2023/06/30 10:09:25;;;;;;;7.70;1.90;;;20.30;99.80;;;;;;5052897;28;20056;-60
2023/06/30 10:11:54;;;;;;;8.95;1.90;;;20.40;99.00;;;;;;5052651;28;20106;-60
2023/06/30 10:14:27;;;;;;;6.57;2.10;;;20.60;99.00;;;;;;5069925;28;20572;-60
2023/06/30 10:16:55;;;;;;;5.88;1.33;;;20.60;99.10;;;;;;5070430;28;20200;-59
2023/06/30 10:19:23;;;;;;;14.13;1.83;;;20.70;99.60;;;;;;5033783;28;20139;-61
2023/06/30 10:21:50;;;;;;;6.00;1.88;;;20.60;99.40;;;;;;5062784;28;20139;-59
2023/06/30 10:24:19;;;;;;;9.40;2.03;;;20.70;99.90;;;;;;5051089;28;20056;-60
2023/06/30 10:26:47;;;;;;;8.20;2.03;;;20.80;99.70;;;;;;5032503;28;20049;-61
2023/06/30 10:29:14;;;;;;;11.18;2.80;;;21.00;99.90;;;;;;5052336;28;20067;-60
2023/06/30 10:31:42;;;;;;;3.85;1.42;;;21.10;99.90;;;;;;5052127;28;20045;-60
2023/06/30 10:34:09;;;;;;;8.90;1.75;;;21.20;99.90;;;;;;5052077;28;20045;-58
2023/06/30 10:36:36;;;;;;;8.63;2.03;;;21.30;99.90;;;;;;5065085;28;20054;-59
2023/06/30 10:39:04;;;;;;;6.00;1.83;;;21.30;99.60;;;;;;5051840;28;20052;-57
2023/06/30 10:41:30;;;;;;;4.85;1.83;;;21.30;99.90;;;;;;5068566;28;20491;-58
2023/06/30 10:44:03;;;;;;;4.28;1.60;;;21.20;99.90;;;;;;5069523;28;20049;-58
2023/06/30 10:46:50;;;;;;;10.47;2.63;;;21.10;99.70;;;;;;4716206;28;10000590;-59
2023/06/30 10:49:23;;;;;;;9.88;1.77;;;21.00;99.50;;;;;;5069820;28;20281;-60
2023/06/30 10:51:50;;;;;;;11.05;2.70;;;21.00;99.90;;;;;;5069395;28;20491;-59
2023/06/30 10:54:28;;;;;;;6.32;1.80;;;21.10;99.90;;;;;;5069537;28;20052;-59
2023/06/30 10:57:08;;;;;;;9.32;2.72;;;20.90;99.90;;;;;;5068927;28;20127;-59
2023/06/30 10:59:37;;;;;;;10.30;2.50;;;20.60;99.60;;;;;;5069846;28;20048;-58
2023/06/30 11:02:10;;;;;;;9.32;2.08;;;20.80;99.90;;;;;;5069165;28;20063;-60
2023/06/30 11:04:37;;;;;;;;;;;20.90;99.90;;;;;;5069872;28;20482;-60
2023/06/30 11:07:06;;;;;;;6.00;2.15;;;21.00;99.70;;;;;;5068899;28;19942;-60
2023/06/30 11:09:48;;;;;;;5.07;1.60;;;21.00;99.90;;;;;;5069561;28;20045;-58
2023/06/30 11:12:18;;;;;;;9.50;2.20;;;21.10;99.90;;;;;;5068751;28;20045;-60
2023/06/30 11:14:58;;;;;;;5.95;1.65;;;21.20;99.90;;;;;;5069199;28;20056;-58
2023/06/30 11:17:26;;;;;;;11.57;2.85;;;21.20;99.90;;;;;;5068860;28;20076;-57
2023/06/30 11:20:10;;;;;;;6.75;2.05;;;21.30;99.90;;;;;;5061905;28;20083;-57
2023/06/30 11:22:37;;;;;;;11.57;3.05;;;21.30;99.90;;;;;;5058868;28;20045;-59
2023/06/30 11:25:11;;;;;;;8.93;2.58;;;21.10;99.90;;;;;;5060500;28;20083;-58
2023/06/30 11:27:38;;;;;;;8.65;2.67;;;20.80;99.90;;;;;;5060344;28;20102;-59
2023/06/30 11:30:06;;;;;;;8.68;1.75;;;20.80;99.90;;;;;;5033710;28;20527;-59
2023/06/30 11:32:35;;;;;;;9.15;1.88;;;20.90;99.90;;;;;;5046479;28;20040;-58
2023/06/30 11:35:07;;;;;;;3.97;1.80;;;20.80;99.90;;;;;;5068057;28;20138;-59
2023/06/30 11:37:37;;;;;;;5.13;2.25;;;20.50;99.90;;;;;;5066955;28;20041;-57
2023/06/30 11:40:07;;;;;;;10.52;2.88;;;20.40;99.90;;;;;;5049467;28;20045;-58
2023/06/30 11:42:39;;;;;;;8.20;2.30;;;20.50;99.90;;;;;;5061043;28;20041;-59
2023/06/30 11:45:06;;;;;;;5.05;2.20;;;20.40;99.90;;;;;;5038306;28;20044;-59
2023/06/30 11:47:36;;;;;;;9.25;3.80;;;20.50;99.90;;;;;;5068678;28;20048;-58
2023/06/30 11:50:07;;;;;;;8.10;2.05;;;20.50;99.90;;;;;;5050974;28;20052;-59
2023/06/30 11:52:34;;;;;;;11.88;2.72;;;20.50;99.90;;;;;;5057343;28;20454;-58
2023/06/30 11:55:11;;;;;;;12.77;2.30;;;20.50;99.90;;;;;;5061068;28;20280;-58
2023/06/30 11:57:39;;;;;;;8.40;1.88;;;20.50;99.90;;;;;;5068269;28;20044;-56
2023/06/30 12:00:16;;;;;;;10.45;2.13;;;20.40;99.90;;;;;;5068658;28;20045;-57
2023/06/30 12:02:45;;;;;;;5.07;1.80;;;20.20;99.90;;;;;;5062132;28;20083;-59
2023/06/30 12:05:25;;;;;;;11.95;3.10;;;20.20;99.90;;;;;;5044210;28;20121;-59
2023/06/30 12:07:55;;;;;;;6.40;2.17;;;20.10;99.90;;;;;;5062953;28;20052;-59
2023/06/30 12:10:39;;;;;;;10.02;2.78;;;20.00;99.90;;;;;;5068606;28;20114;-58
2023/06/30 12:13:07;;;;;;;10.63;1.88;;;19.90;99.90;;;;;;5068306;28;20393;-58
2023/06/30 12:15:35;;;;;;;15.57;2.75;;;19.90;99.90;;;;;;5068619;28;20036;-57
2023/06/30 12:18:04;;;;;;;6.93;2.13;;;19.90;99.90;;;;;;5068343;28;20044;-57
2023/06/30 12:20:34;;;;;;;13.75;3.95;;;19.90;99.90;;;;;;5068609;28;20048;-58
2023/06/30 12:23:01;;;;;;;7.40;2.47;;;20.00;99.90;;;;;;5068297;28;20079;-58
2023/06/30 12:25:33;;;;;;;9.60;4.20;;;20.00;99.90;;;;;;5067751;28;20515;-58
2023/06/30 12:28:04;;;;;;;7.97;2.22;;;20.10;99.90;;;;;;5050954;28;20040;-58
2023/06/30 12:30:31;;;;;;;6.85;1.85;;;20.30;99.90;;;;;;5067470;28;20044;-59
2023/06/30 12:32:58;;;;;;;9.10;2.03;;;20.40;99.90;;;;;;5068484;28;20055;-59
2023/06/30 12:35:36;;;;;;;7.95;1.65;;;20.40;99.90;;;;;;5064374;28;20103;-59
2023/06/30 12:38:08;;;;;;;5.88;1.45;;;20.30;99.90;;;;;;5033642;28;20375;-58
2023/06/30 12:40:35;;;;;;;13.20;1.60;;;20.10;99.90;;;;;;5067876;28;20044;-58
2023/06/30 12:43:02;;;;;;;13.02;2.05;;;20.10;99.90;;;;;;5068241;28;20419;-58
2023/06/30 12:45:29;;;;;;;12.90;2.27;;;20.20;99.90;;;;;;4679092;28;10001363;-59
2023/06/30 12:47:57;;;;;;;11.25;2.00;;;20.30;99.90;;;;;;5054303;28;20094;-56
2023/06/30 12:50:24;;;;;;;8.25;2.55;;;20.20;99.90;;;;;;5056052;28;20389;-58